sensor_id;sensor_type;location;lat;lon;timestamp;P1;durP1;ratioP1;P2;durP2;ratioP2
74064;SDS011;62421;51.412;5.432;2022-12-11T00:01:16;66.37;;;20.10;;
74064;SDS011;62421;51.412;5.432;2022-12-11T00:03:43;71.80;;;20.13;;
74064;SDS011;62421;51.412;5.432;2022-12-11T00:06:10;65.22;;;19.67;;
74064;SDS011;62421;51.412;5.432;2022-12-11T00:08:37;58.47;;;17.23;;
74064;SDS011;62421;51.412;5.432;2022-12-11T00:11:04;72.93;;;22.08;;
74064;SDS011;62421;51.412;5.432;2022-12-11T00:13:31;68.83;;;19.77;;
74064;SDS011;62421;51.412;5.432;2022-12-11T00:15:57;64.53;;;19.90;;
74064;SDS011;62421;51.412;5.432;2022-12-11T00:18:23;62.33;;;18.43;;
74064;SDS011;62421;51.412;5.432;2022-12-11T00:20:48;59.33;;;19.43;;
74064;SDS011;62421;51.412;5.432;2022-12-11T00:23:13;65.72;;;20.85;;
74064;SDS011;62421;51.412;5.432;2022-12-11T00:25:40;65.03;;;19.83;;
74064;SDS011;62421;51.412;5.432;2022-12-11T00:28:10;59.23;;;19.03;;
74064;SDS011;62421;51.412;5.432;2022-12-11T00:30:40;55.47;;;17.58;;
74064;SDS011;62421;51.412;5.432;2022-12-11T00:33:06;59.03;;;18.55;;
74064;SDS011;62421;51.412;5.432;2022-12-11T00:35:33;60.28;;;18.45;;
74064;SDS011;62421;51.412;5.432;2022-12-11T00:38:03;61.03;;;18.47;;
74064;SDS011;62421;51.412;5.432;2022-12-11T00:40:28;63.35;;;18.95;;
74064;SDS011;62421;51.412;5.432;2022-12-11T00:42:53;61.13;;;19.93;;
74064;SDS011;62421;51.412;5.432;2022-12-11T00:45:19;58.20;;;19.07;;
74064;SDS011;62421;51.412;5.432;2022-12-11T00:47:44;60.63;;;18.50;;
74064;SDS011;62421;51.412;5.432;2022-12-11T00:50:09;60.30;;;19.63;;
74064;SDS011;62421;51.412;5.432;2022-12-11T00:52:36;57.65;;;19.63;;
74064;SDS011;62421;51.412;5.432;2022-12-11T00:55:01;59.72;;;18.75;;
74064;SDS011;62421;51.412;5.432;2022-12-11T00:57:26;59.67;;;18.97;;
74064;SDS011;62421;51.412;5.432;2022-12-11T00:59:52;55.60;;;18.57;;
74064;SDS011;62421;51.412;5.432;2022-12-11T01:02:17;54.90;;;17.50;;
74064;SDS011;62421;51.412;5.432;2022-12-11T01:04:42;58.77;;;18.63;;
74064;SDS011;62421;51.412;5.432;2022-12-11T01:07:08;64.17;;;19.00;;
74064;SDS011;62421;51.412;5.432;2022-12-11T01:09:33;57.00;;;17.97;;
74064;SDS011;62421;51.412;5.432;2022-12-11T01:12:17;57.90;;;18.20;;
74064;SDS011;62421;51.412;5.432;2022-12-11T01:14:42;51.30;;;15.97;;
74064;SDS011;62421;51.412;5.432;2022-12-11T01:17:07;58.77;;;18.13;;
74064;SDS011;62421;51.412;5.432;2022-12-11T01:19:32;54.27;;;17.87;;
74064;SDS011;62421;51.412;5.432;2022-12-11T01:21:58;62.80;;;18.23;;
74064;SDS011;62421;51.412;5.432;2022-12-11T01:24:24;55.17;;;18.80;;
74064;SDS011;62421;51.412;5.432;2022-12-11T01:26:49;60.63;;;18.52;;
74064;SDS011;62421;51.412;5.432;2022-12-11T01:29:15;61.30;;;18.93;;
74064;SDS011;62421;51.412;5.432;2022-12-11T01:31:40;57.50;;;18.57;;
74064;SDS011;62421;51.412;5.432;2022-12-11T01:34:05;55.13;;;19.23;;
74064;SDS011;62421;51.412;5.432;2022-12-11T01:36:31;61.57;;;18.80;;
74064;SDS011;62421;51.412;5.432;2022-12-11T01:38:56;62.23;;;19.57;;
74064;SDS011;62421;51.412;5.432;2022-12-11T01:41:22;55.37;;;18.77;;
74064;SDS011;62421;51.412;5.432;2022-12-11T01:46:51;56.80;;;19.15;;
74064;SDS011;62421;51.412;5.432;2022-12-11T01:49:17;53.03;;;18.10;;
74064;SDS011;62421;51.412;5.432;2022-12-11T01:51:50;61.28;;;17.77;;
74064;SDS011;62421;51.412;5.432;2022-12-11T01:54:20;50.13;;;17.55;;
74064;SDS011;62421;51.412;5.432;2022-12-11T01:56:47;61.05;;;19.05;;
74064;SDS011;62421;51.412;5.432;2022-12-11T01:59:16;50.03;;;16.40;;
74064;SDS011;62421;51.412;5.432;2022-12-11T02:01:54;47.45;;;16.98;;
74064;SDS011;62421;51.412;5.432;2022-12-11T02:04:25;49.80;;;17.50;;
74064;SDS011;62421;51.412;5.432;2022-12-11T02:06:51;55.22;;;17.08;;
74064;SDS011;62421;51.412;5.432;2022-12-11T02:09:27;46.53;;;17.73;;
74064;SDS011;62421;51.412;5.432;2022-12-11T02:12:02;54.27;;;16.70;;
74064;SDS011;62421;51.412;5.432;2022-12-11T02:14:47;48.10;;;16.40;;
74064;SDS011;62421;51.412;5.432;2022-12-11T02:20:19;54.38;;;15.90;;
74064;SDS011;62421;51.412;5.432;2022-12-11T02:22:57;54.63;;;16.93;;
74064;SDS011;62421;51.412;5.432;2022-12-11T02:25:56;51.95;;;17.42;;
74064;SDS011;62421;51.412;5.432;2022-12-11T02:28:38;54.53;;;16.83;;
74064;SDS011;62421;51.412;5.432;2022-12-11T02:31:11;51.88;;;18.02;;
74064;SDS011;62421;51.412;5.432;2022-12-11T02:36:34;59.25;;;17.77;;
74064;SDS011;62421;51.412;5.432;2022-12-11T02:39:03;57.85;;;17.30;;
74064;SDS011;62421;51.412;5.432;2022-12-11T02:41:31;54.78;;;17.67;;
74064;SDS011;62421;51.412;5.432;2022-12-11T02:43:58;48.17;;;17.30;;
74064;SDS011;62421;51.412;5.432;2022-12-11T02:46:26;49.22;;;15.57;;
74064;SDS011;62421;51.412;5.432;2022-12-11T02:48:52;48.90;;;16.88;;
74064;SDS011;62421;51.412;5.432;2022-12-11T02:51:25;52.08;;;18.00;;
74064;SDS011;62421;51.412;5.432;2022-12-11T02:53:55;51.05;;;18.15;;
74064;SDS011;62421;51.412;5.432;2022-12-11T02:56:24;52.90;;;17.83;;
74064;SDS011;62421;51.412;5.432;2022-12-11T02:58:56;46.03;;;16.20;;
74064;SDS011;62421;51.412;5.432;2022-12-11T03:01:25;44.57;;;15.87;;
74064;SDS011;62421;51.412;5.432;2022-12-11T03:03:51;40.03;;;16.13;;
74064;SDS011;62421;51.412;5.432;2022-12-11T03:06:18;44.10;;;15.65;;
74064;SDS011;62421;51.412;5.432;2022-12-11T03:08:48;44.63;;;15.25;;
74064;SDS011;62421;51.412;5.432;2022-12-11T03:11:16;44.87;;;16.10;;
74064;SDS011;62421;51.412;5.432;2022-12-11T03:13:41;38.75;;;15.48;;
74064;SDS011;62421;51.412;5.432;2022-12-11T03:18:43;41.47;;;13.60;;
74064;SDS011;62421;51.412;5.432;2022-12-11T03:21:23;41.13;;;14.05;;
74064;SDS011;62421;51.412;5.432;2022-12-11T03:24:10;42.88;;;15.35;;
74064;SDS011;62421;51.412;5.432;2022-12-11T03:27:02;39.55;;;15.52;;
74064;SDS011;62421;51.412;5.432;2022-12-11T03:29:36;45.22;;;14.98;;
74064;SDS011;62421;51.412;5.432;2022-12-11T03:32:08;40.10;;;15.65;;
74064;SDS011;62421;51.412;5.432;2022-12-11T03:34:45;42.78;;;14.23;;
74064;SDS011;62421;51.412;5.432;2022-12-11T03:37:17;39.60;;;14.90;;
74064;SDS011;62421;51.412;5.432;2022-12-11T03:39:47;38.80;;;13.65;;
74064;SDS011;62421;51.412;5.432;2022-12-11T03:42:16;37.47;;;14.32;;
74064;SDS011;62421;51.412;5.432;2022-12-11T03:44:45;36.88;;;14.15;;
74064;SDS011;62421;51.412;5.432;2022-12-11T03:47:13;34.60;;;14.13;;
74064;SDS011;62421;51.412;5.432;2022-12-11T03:49:42;36.72;;;13.02;;
74064;SDS011;62421;51.412;5.432;2022-12-11T03:52:10;32.40;;;13.23;;
74064;SDS011;62421;51.412;5.432;2022-12-11T03:54:39;36.72;;;14.32;;
74064;SDS011;62421;51.412;5.432;2022-12-11T03:57:06;34.37;;;13.50;;
74064;SDS011;62421;51.412;5.432;2022-12-11T03:59:34;36.47;;;13.75;;
74064;SDS011;62421;51.412;5.432;2022-12-11T04:01:59;36.73;;;14.23;;
74064;SDS011;62421;51.412;5.432;2022-12-11T04:04:25;38.70;;;13.98;;
74064;SDS011;62421;51.412;5.432;2022-12-11T04:06:50;33.00;;;13.63;;
74064;SDS011;62421;51.412;5.432;2022-12-11T04:09:15;31.43;;;13.60;;
74064;SDS011;62421;51.412;5.432;2022-12-11T04:11:41;35.50;;;14.57;;
74064;SDS011;62421;51.412;5.432;2022-12-11T04:14:10;31.63;;;12.70;;
74064;SDS011;62421;51.412;5.432;2022-12-11T04:16:56;32.20;;;12.70;;
74064;SDS011;62421;51.412;5.432;2022-12-11T04:19:22;30.95;;;12.55;;
74064;SDS011;62421;51.412;5.432;2022-12-11T04:22:08;32.13;;;13.43;;
74064;SDS011;62421;51.412;5.432;2022-12-11T04:24:54;31.25;;;12.63;;
74064;SDS011;62421;51.412;5.432;2022-12-11T04:27:19;23.40;;;11.77;;
74064;SDS011;62421;51.412;5.432;2022-12-11T04:30:04;31.45;;;13.02;;
74064;SDS011;62421;51.412;5.432;2022-12-11T04:32:32;33.63;;;13.20;;
74064;SDS011;62421;51.412;5.432;2022-12-11T04:34:57;28.37;;;12.67;;
74064;SDS011;62421;51.412;5.432;2022-12-11T04:37:22;27.15;;;11.95;;
74064;SDS011;62421;51.412;5.432;2022-12-11T04:39:48;31.40;;;12.00;;
74064;SDS011;62421;51.412;5.432;2022-12-11T04:42:14;32.30;;;13.77;;
74064;SDS011;62421;51.412;5.432;2022-12-11T04:44:39;31.17;;;12.13;;
74064;SDS011;62421;51.412;5.432;2022-12-11T04:47:04;27.07;;;11.60;;
74064;SDS011;62421;51.412;5.432;2022-12-11T04:49:30;29.52;;;11.95;;
74064;SDS011;62421;51.412;5.432;2022-12-11T04:51:55;32.27;;;12.53;;
74064;SDS011;62421;51.412;5.432;2022-12-11T04:54:20;26.60;;;11.20;;
74064;SDS011;62421;51.412;5.432;2022-12-11T04:56:45;25.83;;;11.97;;
74064;SDS011;62421;51.412;5.432;2022-12-11T04:59:11;25.33;;;10.83;;
74064;SDS011;62421;51.412;5.432;2022-12-11T05:01:36;28.53;;;11.33;;
74064;SDS011;62421;51.412;5.432;2022-12-11T05:04:01;28.77;;;12.07;;
74064;SDS011;62421;51.412;5.432;2022-12-11T05:06:27;25.40;;;11.63;;
74064;SDS011;62421;51.412;5.432;2022-12-11T05:08:52;26.73;;;11.17;;
74064;SDS011;62421;51.412;5.432;2022-12-11T05:11:17;25.53;;;11.87;;
74064;SDS011;62421;51.412;5.432;2022-12-11T05:13:43;28.13;;;11.37;;
74064;SDS011;62421;51.412;5.432;2022-12-11T05:16:10;27.95;;;12.23;;
74064;SDS011;62421;51.412;5.432;2022-12-11T05:18:37;23.88;;;11.52;;
74064;SDS011;62421;51.412;5.432;2022-12-11T05:21:04;25.23;;;10.57;;
74064;SDS011;62421;51.412;5.432;2022-12-11T05:23:32;29.60;;;11.93;;
74064;SDS011;62421;51.412;5.432;2022-12-11T05:25:59;25.03;;;11.50;;
74064;SDS011;62421;51.412;5.432;2022-12-11T05:28:29;28.42;;;11.73;;
74064;SDS011;62421;51.412;5.432;2022-12-11T05:31:00;26.67;;;11.43;;
74064;SDS011;62421;51.412;5.432;2022-12-11T05:33:27;23.45;;;11.20;;
74064;SDS011;62421;51.412;5.432;2022-12-11T05:35:53;23.53;;;11.93;;
74064;SDS011;62421;51.412;5.432;2022-12-11T05:38:19;25.80;;;11.00;;
74064;SDS011;62421;51.412;5.432;2022-12-11T05:40:45;26.00;;;12.13;;
74064;SDS011;62421;51.412;5.432;2022-12-11T05:43:30;24.23;;;11.55;;
74064;SDS011;62421;51.412;5.432;2022-12-11T05:48:34;25.17;;;10.37;;
74064;SDS011;62421;51.412;5.432;2022-12-11T05:51:01;23.27;;;10.70;;
74064;SDS011;62421;51.412;5.432;2022-12-11T05:53:27;28.45;;;10.57;;
74064;SDS011;62421;51.412;5.432;2022-12-11T05:55:54;23.70;;;10.57;;
74064;SDS011;62421;51.412;5.432;2022-12-11T05:58:24;26.27;;;10.73;;
74064;SDS011;62421;51.412;5.432;2022-12-11T06:00:50;24.67;;;11.07;;
74064;SDS011;62421;51.412;5.432;2022-12-11T06:03:15;27.27;;;10.87;;
74064;SDS011;62421;51.412;5.432;2022-12-11T06:05:41;25.08;;;10.57;;
74064;SDS011;62421;51.412;5.432;2022-12-11T06:08:06;22.90;;;10.57;;
74064;SDS011;62421;51.412;5.432;2022-12-11T06:10:32;27.40;;;11.98;;
74064;SDS011;62421;51.412;5.432;2022-12-11T06:12:58;26.03;;;11.53;;
74064;SDS011;62421;51.412;5.432;2022-12-11T06:15:23;26.42;;;11.68;;
74064;SDS011;62421;51.412;5.432;2022-12-11T06:17:49;27.02;;;10.98;;
74064;SDS011;62421;51.412;5.432;2022-12-11T06:20:14;24.92;;;11.73;;
74064;SDS011;62421;51.412;5.432;2022-12-11T06:22:40;24.85;;;10.45;;
74064;SDS011;62421;51.412;5.432;2022-12-11T06:25:05;25.83;;;11.17;;
74064;SDS011;62421;51.412;5.432;2022-12-11T06:27:31;26.50;;;12.27;;
74064;SDS011;62421;51.412;5.432;2022-12-11T06:29:56;26.57;;;11.10;;
74064;SDS011;62421;51.412;5.432;2022-12-11T06:32:22;30.67;;;12.30;;
74064;SDS011;62421;51.412;5.432;2022-12-11T06:34:47;27.43;;;11.67;;
74064;SDS011;62421;51.412;5.432;2022-12-11T06:37:12;26.57;;;11.93;;
74064;SDS011;62421;51.412;5.432;2022-12-11T06:39:37;25.57;;;10.87;;
74064;SDS011;62421;51.412;5.432;2022-12-11T06:42:03;28.33;;;11.43;;
74064;SDS011;62421;51.412;5.432;2022-12-11T06:44:28;28.33;;;12.13;;
74064;SDS011;62421;51.412;5.432;2022-12-11T06:46:53;27.77;;;11.90;;
74064;SDS011;62421;51.412;5.432;2022-12-11T06:49:19;28.30;;;12.30;;
74064;SDS011;62421;51.412;5.432;2022-12-11T06:51:44;27.13;;;11.77;;
74064;SDS011;62421;51.412;5.432;2022-12-11T06:54:09;28.77;;;12.40;;
74064;SDS011;62421;51.412;5.432;2022-12-11T06:56:35;30.23;;;12.30;;
74064;SDS011;62421;51.412;5.432;2022-12-11T06:59:00;26.03;;;11.50;;
74064;SDS011;62421;51.412;5.432;2022-12-11T07:01:26;27.25;;;12.13;;
74064;SDS011;62421;51.412;5.432;2022-12-11T07:03:55;27.77;;;13.23;;
74064;SDS011;62421;51.412;5.432;2022-12-11T07:06:22;34.13;;;13.45;;
74064;SDS011;62421;51.412;5.432;2022-12-11T07:08:49;29.58;;;12.55;;
74064;SDS011;62421;51.412;5.432;2022-12-11T07:11:15;29.50;;;12.57;;
74064;SDS011;62421;51.412;5.432;2022-12-11T07:13:41;29.80;;;11.88;;
74064;SDS011;62421;51.412;5.432;2022-12-11T07:16:07;33.43;;;13.63;;
74064;SDS011;62421;51.412;5.432;2022-12-11T07:18:35;32.58;;;14.45;;
74064;SDS011;62421;51.412;5.432;2022-12-11T07:21:02;28.73;;;13.07;;
74064;SDS011;62421;51.412;5.432;2022-12-11T07:23:28;35.88;;;13.10;;
74064;SDS011;62421;51.412;5.432;2022-12-11T07:25:54;31.27;;;13.43;;
74064;SDS011;62421;51.412;5.432;2022-12-11T07:28:20;29.25;;;13.20;;
74064;SDS011;62421;51.412;5.432;2022-12-11T07:30:45;32.35;;;12.52;;
74064;SDS011;62421;51.412;5.432;2022-12-11T07:33:11;32.43;;;13.60;;
74064;SDS011;62421;51.412;5.432;2022-12-11T07:35:36;36.20;;;14.70;;
74064;SDS011;62421;51.412;5.432;2022-12-11T07:38:02;35.03;;;13.73;;
74064;SDS011;62421;51.412;5.432;2022-12-11T07:40:27;35.25;;;14.05;;
74064;SDS011;62421;51.412;5.432;2022-12-11T07:42:52;35.07;;;14.50;;
74064;SDS011;62421;51.412;5.432;2022-12-11T07:45:18;34.57;;;14.50;;
74064;SDS011;62421;51.412;5.432;2022-12-11T07:47:43;28.53;;;12.57;;
74064;SDS011;62421;51.412;5.432;2022-12-11T07:50:09;35.93;;;13.90;;
74064;SDS011;62421;51.412;5.432;2022-12-11T07:52:34;31.83;;;13.13;;
74064;SDS011;62421;51.412;5.432;2022-12-11T07:55:00;33.00;;;14.10;;
74064;SDS011;62421;51.412;5.432;2022-12-11T07:57:26;31.97;;;13.27;;
74064;SDS011;62421;51.412;5.432;2022-12-11T07:59:51;29.23;;;12.87;;
74064;SDS011;62421;51.412;5.432;2022-12-11T08:02:17;29.85;;;11.95;;
74064;SDS011;62421;51.412;5.432;2022-12-11T08:04:42;30.20;;;13.03;;
74064;SDS011;62421;51.412;5.432;2022-12-11T08:07:07;30.33;;;12.43;;
74064;SDS011;62421;51.412;5.432;2022-12-11T08:09:33;33.53;;;13.70;;
74064;SDS011;62421;51.412;5.432;2022-12-11T08:11:58;27.30;;;12.20;;
74064;SDS011;62421;51.412;5.432;2022-12-11T08:14:24;33.03;;;13.93;;
74064;SDS011;62421;51.412;5.432;2022-12-11T08:16:49;30.67;;;13.37;;
74064;SDS011;62421;51.412;5.432;2022-12-11T08:19:14;32.40;;;12.23;;
74064;SDS011;62421;51.412;5.432;2022-12-11T08:21:40;30.30;;;12.57;;
74064;SDS011;62421;51.412;5.432;2022-12-11T08:24:07;29.85;;;11.98;;
74064;SDS011;62421;51.412;5.432;2022-12-11T08:26:32;29.33;;;12.07;;
74064;SDS011;62421;51.412;5.432;2022-12-11T08:28:58;30.65;;;12.88;;
74064;SDS011;62421;51.412;5.432;2022-12-11T08:31:24;29.43;;;11.37;;
74064;SDS011;62421;51.412;5.432;2022-12-11T08:33:50;26.67;;;12.23;;
74064;SDS011;62421;51.412;5.432;2022-12-11T08:36:18;26.70;;;12.03;;
74064;SDS011;62421;51.412;5.432;2022-12-11T08:38:45;30.60;;;12.13;;
74064;SDS011;62421;51.412;5.432;2022-12-11T08:41:14;31.75;;;12.57;;
74064;SDS011;62421;51.412;5.432;2022-12-11T08:43:41;25.27;;;10.70;;
74064;SDS011;62421;51.412;5.432;2022-12-11T08:46:07;26.13;;;11.97;;
74064;SDS011;62421;51.412;5.432;2022-12-11T08:48:34;32.20;;;11.75;;
74064;SDS011;62421;51.412;5.432;2022-12-11T08:51:04;32.75;;;11.80;;
74064;SDS011;62421;51.412;5.432;2022-12-11T08:53:32;30.43;;;13.13;;
74064;SDS011;62421;51.412;5.432;2022-12-11T08:56:01;33.35;;;12.32;;
74064;SDS011;62421;51.412;5.432;2022-12-11T08:58:27;27.23;;;11.70;;
74064;SDS011;62421;51.412;5.432;2022-12-11T09:00:53;31.83;;;11.97;;
74064;SDS011;62421;51.412;5.432;2022-12-11T09:03:18;38.13;;;12.95;;
74064;SDS011;62421;51.412;5.432;2022-12-11T09:05:43;31.70;;;12.30;;
74064;SDS011;62421;51.412;5.432;2022-12-11T09:08:09;28.00;;;11.93;;
74064;SDS011;62421;51.412;5.432;2022-12-11T09:10:34;32.20;;;13.70;;
74064;SDS011;62421;51.412;5.432;2022-12-11T09:12:59;32.90;;;13.07;;
74064;SDS011;62421;51.412;5.432;2022-12-11T09:15:25;35.57;;;13.60;;
74064;SDS011;62421;51.412;5.432;2022-12-11T09:17:50;31.43;;;13.00;;
74064;SDS011;62421;51.412;5.432;2022-12-11T09:20:15;29.77;;;12.37;;
74064;SDS011;62421;51.412;5.432;2022-12-11T09:22:41;28.37;;;11.30;;
74064;SDS011;62421;51.412;5.432;2022-12-11T09:25:07;31.95;;;12.43;;
74064;SDS011;62421;51.412;5.432;2022-12-11T09:27:33;30.30;;;12.45;;
74064;SDS011;62421;51.412;5.432;2022-12-11T09:29:59;27.00;;;12.10;;
74064;SDS011;62421;51.412;5.432;2022-12-11T09:32:24;29.67;;;12.03;;
74064;SDS011;62421;51.412;5.432;2022-12-11T09:34:50;28.53;;;13.13;;
74064;SDS011;62421;51.412;5.432;2022-12-11T09:37:17;37.05;;;12.77;;
74064;SDS011;62421;51.412;5.432;2022-12-11T09:39:43;29.30;;;12.03;;
74064;SDS011;62421;51.412;5.432;2022-12-11T09:42:20;31.73;;;12.77;;
74064;SDS011;62421;51.412;5.432;2022-12-11T09:44:54;31.50;;;13.07;;
74064;SDS011;62421;51.412;5.432;2022-12-11T09:50:26;32.80;;;13.43;;
74064;SDS011;62421;51.412;5.432;2022-12-11T09:53:00;29.23;;;11.83;;
74064;SDS011;62421;51.412;5.432;2022-12-11T09:58:35;33.00;;;11.52;;
74064;SDS011;62421;51.412;5.432;2022-12-11T10:09:32;26.25;;;11.38;;
74064;SDS011;62421;51.412;5.432;2022-12-11T10:17:26;31.52;;;12.20;;
74064;SDS011;62421;51.412;5.432;2022-12-11T10:19:56;28.08;;;11.20;;
74064;SDS011;62421;51.412;5.432;2022-12-11T10:22:27;27.25;;;10.38;;
74064;SDS011;62421;51.412;5.432;2022-12-11T10:24:57;30.73;;;11.30;;
74064;SDS011;62421;51.412;5.432;2022-12-11T10:27:29;33.80;;;12.07;;
74064;SDS011;62421;51.412;5.432;2022-12-11T10:35:38;24.93;;;10.33;;
74064;SDS011;62421;51.412;5.432;2022-12-11T10:38:25;29.63;;;11.38;;
74064;SDS011;62421;51.412;5.432;2022-12-11T10:40:57;32.33;;;11.10;;
74064;SDS011;62421;51.412;5.432;2022-12-11T10:43:41;30.30;;;10.90;;
74064;SDS011;62421;51.412;5.432;2022-12-11T10:46:14;28.23;;;10.97;;
74064;SDS011;62421;51.412;5.432;2022-12-11T10:48:51;29.30;;;10.73;;
74064;SDS011;62421;51.412;5.432;2022-12-11T10:53:57;26.98;;;11.00;;
74064;SDS011;62421;51.412;5.432;2022-12-11T10:56:30;28.77;;;10.93;;
74064;SDS011;62421;51.412;5.432;2022-12-11T10:58:57;24.67;;;9.70;;
74064;SDS011;62421;51.412;5.432;2022-12-11T11:01:24;23.55;;;10.13;;
74064;SDS011;62421;51.412;5.432;2022-12-11T11:06:21;26.90;;;10.23;;
74064;SDS011;62421;51.412;5.432;2022-12-11T11:08:49;23.92;;;10.05;;
74064;SDS011;62421;51.412;5.432;2022-12-11T11:11:21;25.48;;;9.85;;
74064;SDS011;62421;51.412;5.432;2022-12-11T11:13:49;23.67;;;10.50;;
74064;SDS011;62421;51.412;5.432;2022-12-11T11:16:16;31.07;;;12.40;;
74064;SDS011;62421;51.412;5.432;2022-12-11T11:18:54;24.15;;;11.50;;
74064;SDS011;62421;51.412;5.432;2022-12-11T11:21:21;27.58;;;10.82;;
74064;SDS011;62421;51.412;5.432;2022-12-11T11:23:50;24.35;;;10.45;;
74064;SDS011;62421;51.412;5.432;2022-12-11T11:26:17;24.63;;;10.50;;
74064;SDS011;62421;51.412;5.432;2022-12-11T11:28:48;25.23;;;10.02;;
74064;SDS011;62421;51.412;5.432;2022-12-11T11:31:17;26.30;;;10.90;;
74064;SDS011;62421;51.412;5.432;2022-12-11T11:33:44;23.70;;;10.73;;
74064;SDS011;62421;51.412;5.432;2022-12-11T11:36:21;24.67;;;10.53;;
74064;SDS011;62421;51.412;5.432;2022-12-11T11:38:50;27.10;;;10.07;;
74064;SDS011;62421;51.412;5.432;2022-12-11T11:41:19;24.92;;;11.07;;
74064;SDS011;62421;51.412;5.432;2022-12-11T11:43:50;25.48;;;11.02;;
74064;SDS011;62421;51.412;5.432;2022-12-11T11:46:18;23.70;;;10.90;;
74064;SDS011;62421;51.412;5.432;2022-12-11T11:51:40;25.38;;;10.73;;
74064;SDS011;62421;51.412;5.432;2022-12-11T11:57:02;23.83;;;9.83;;
74064;SDS011;62421;51.412;5.432;2022-12-11T11:59:41;21.92;;;9.45;;
74064;SDS011;62421;51.412;5.432;2022-12-11T12:02:14;23.27;;;10.50;;
74064;SDS011;62421;51.412;5.432;2022-12-11T12:04:42;18.65;;;9.18;;
74064;SDS011;62421;51.412;5.432;2022-12-11T12:20:59;19.10;;;8.27;;
74064;SDS011;62421;51.412;5.432;2022-12-11T12:26:32;25.60;;;9.95;;
74064;SDS011;62421;51.412;5.432;2022-12-11T12:29:18;22.20;;;9.73;;
74064;SDS011;62421;51.412;5.432;2022-12-11T12:32:02;24.83;;;10.53;;
74064;SDS011;62421;51.412;5.432;2022-12-11T12:40:19;22.63;;;9.52;;
74064;SDS011;62421;51.412;5.432;2022-12-11T12:47:38;22.83;;;10.30;;
74064;SDS011;62421;51.412;5.432;2022-12-11T12:50:17;25.33;;;9.77;;
74064;SDS011;62421;51.412;5.432;2022-12-11T12:52:45;26.42;;;9.98;;
74064;SDS011;62421;51.412;5.432;2022-12-11T12:57:45;23.10;;;9.80;;
74064;SDS011;62421;51.412;5.432;2022-12-11T13:00:26;25.23;;;10.40;;
74064;SDS011;62421;51.412;5.432;2022-12-11T13:02:52;25.70;;;10.43;;
74064;SDS011;62421;51.412;5.432;2022-12-11T13:05:21;23.60;;;9.90;;
74064;SDS011;62421;51.412;5.432;2022-12-11T13:07:59;24.60;;;10.70;;
74064;SDS011;62421;51.412;5.432;2022-12-11T13:12:56;25.63;;;9.60;;
74064;SDS011;62421;51.412;5.432;2022-12-11T13:17:52;24.08;;;10.75;;
74064;SDS011;62421;51.412;5.432;2022-12-11T13:20:18;24.58;;;10.27;;
74064;SDS011;62421;51.412;5.432;2022-12-11T13:25:46;21.30;;;10.95;;
74064;SDS011;62421;51.412;5.432;2022-12-11T13:28:19;22.90;;;10.18;;
74064;SDS011;62421;51.412;5.432;2022-12-11T13:31:31;21.98;;;9.23;;
74064;SDS011;62421;51.412;5.432;2022-12-11T13:34:17;20.08;;;9.48;;
74064;SDS011;62421;51.412;5.432;2022-12-11T13:36:47;23.92;;;10.10;;
74064;SDS011;62421;51.412;5.432;2022-12-11T13:39:18;16.33;;;8.80;;
74064;SDS011;62421;51.412;5.432;2022-12-11T13:41:50;17.30;;;9.00;;
74064;SDS011;62421;51.412;5.432;2022-12-11T13:44:20;20.20;;;9.15;;
74064;SDS011;62421;51.412;5.432;2022-12-11T13:46:49;20.73;;;9.20;;
74064;SDS011;62421;51.412;5.432;2022-12-11T13:49:21;20.50;;;9.45;;
74064;SDS011;62421;51.412;5.432;2022-12-11T13:51:50;19.10;;;8.40;;
74064;SDS011;62421;51.412;5.432;2022-12-11T13:54:21;15.87;;;8.43;;
74064;SDS011;62421;51.412;5.432;2022-12-11T14:02:02;18.13;;;8.63;;
74064;SDS011;62421;51.412;5.432;2022-12-11T14:04:37;20.02;;;9.35;;
74064;SDS011;62421;51.412;5.432;2022-12-11T14:07:04;22.33;;;9.77;;
74064;SDS011;62421;51.412;5.432;2022-12-11T14:09:33;19.88;;;10.23;;
74064;SDS011;62421;51.412;5.432;2022-12-11T14:12:04;19.40;;;9.65;;
74064;SDS011;62421;51.412;5.432;2022-12-11T14:14:39;18.45;;;8.73;;
74064;SDS011;62421;51.412;5.432;2022-12-11T14:17:13;17.20;;;9.48;;
74064;SDS011;62421;51.412;5.432;2022-12-11T14:19:46;20.95;;;9.73;;
74064;SDS011;62421;51.412;5.432;2022-12-11T14:22:16;24.95;;;9.80;;
74064;SDS011;62421;51.412;5.432;2022-12-11T14:24:50;20.42;;;10.50;;
74064;SDS011;62421;51.412;5.432;2022-12-11T14:27:18;19.38;;;9.35;;
74064;SDS011;62421;51.412;5.432;2022-12-11T14:29:45;19.67;;;9.07;;
74064;SDS011;62421;51.412;5.432;2022-12-11T14:32:30;17.80;;;8.82;;
74064;SDS011;62421;51.412;5.432;2022-12-11T14:34:57;22.50;;;9.95;;
74064;SDS011;62421;51.412;5.432;2022-12-11T14:37:26;20.23;;;9.70;;
74064;SDS011;62421;51.412;5.432;2022-12-11T14:42:24;18.40;;;9.52;;
74064;SDS011;62421;51.412;5.432;2022-12-11T14:44:55;19.77;;;9.13;;
74064;SDS011;62421;51.412;5.432;2022-12-11T14:47:44;19.63;;;8.27;;
74064;SDS011;62421;51.412;5.432;2022-12-11T14:50:16;19.98;;;9.63;;
74064;SDS011;62421;51.412;5.432;2022-12-11T14:52:45;17.98;;;8.75;;
74064;SDS011;62421;51.412;5.432;2022-12-11T14:55:19;18.63;;;9.38;;
74064;SDS011;62421;51.412;5.432;2022-12-11T14:57:46;21.20;;;9.75;;
74064;SDS011;62421;51.412;5.432;2022-12-11T15:00:54;19.42;;;10.13;;
74064;SDS011;62421;51.412;5.432;2022-12-11T15:03:06;22.53;;;10.10;;
74064;SDS011;62421;51.412;5.432;2022-12-11T15:11:02;23.20;;;9.32;;
74064;SDS011;62421;51.412;5.432;2022-12-11T15:13:28;19.40;;;9.23;;
74064;SDS011;62421;51.412;5.432;2022-12-11T15:15:54;21.50;;;10.40;;
74064;SDS011;62421;51.412;5.432;2022-12-11T15:18:23;18.45;;;9.27;;
74064;SDS011;62421;51.412;5.432;2022-12-11T15:20:54;19.30;;;9.77;;
74064;SDS011;62421;51.412;5.432;2022-12-11T15:23:22;18.88;;;8.65;;
74064;SDS011;62421;51.412;5.432;2022-12-11T15:25:57;21.98;;;8.70;;
74064;SDS011;62421;51.412;5.432;2022-12-11T15:28:35;20.80;;;10.30;;
74064;SDS011;62421;51.412;5.432;2022-12-11T15:31:20;20.00;;;9.45;;
74064;SDS011;62421;51.412;5.432;2022-12-11T15:33:46;20.92;;;9.43;;
74064;SDS011;62421;51.412;5.432;2022-12-11T15:38:57;19.52;;;9.70;;
74064;SDS011;62421;51.412;5.432;2022-12-11T15:41:22;19.40;;;8.90;;
74064;SDS011;62421;51.412;5.432;2022-12-11T15:43:49;18.73;;;8.93;;
74064;SDS011;62421;51.412;5.432;2022-12-11T15:46:19;17.27;;;9.68;;
74064;SDS011;62421;51.412;5.432;2022-12-11T15:48:48;19.02;;;9.50;;
74064;SDS011;62421;51.412;5.432;2022-12-11T15:51:14;19.67;;;9.40;;
74064;SDS011;62421;51.412;5.432;2022-12-11T15:53:40;16.73;;;8.60;;
74064;SDS011;62421;51.412;5.432;2022-12-11T15:56:08;19.90;;;9.57;;
74064;SDS011;62421;51.412;5.432;2022-12-11T15:58:36;22.42;;;9.68;;
74064;SDS011;62421;51.412;5.432;2022-12-11T16:01:02;19.27;;;9.55;;
74064;SDS011;62421;51.412;5.432;2022-12-11T16:03:28;20.80;;;9.03;;
74064;SDS011;62421;51.412;5.432;2022-12-11T16:05:53;18.27;;;9.47;;
74064;SDS011;62421;51.412;5.432;2022-12-11T16:08:20;18.10;;;8.73;;
74064;SDS011;62421;51.412;5.432;2022-12-11T16:10:47;19.35;;;8.82;;
74064;SDS011;62421;51.412;5.432;2022-12-11T16:13:13;18.70;;;10.15;;
74064;SDS011;62421;51.412;5.432;2022-12-11T16:15:39;20.60;;;10.13;;
74064;SDS011;62421;51.412;5.432;2022-12-11T16:18:10;19.95;;;9.27;;